Pagina principale
METAR-TAF:

METAR-TAF

Aeroporti :

Passo Rolle, Italia

latitudine: 46-18N, longitudine: 011-47E, altezza: 2004 m

Osservazione

Il bollettino è stato emesso 44 minuti fa, alle 12:55 UTC
Vento 14 kt da ovest/nord-ovest
Temperature 1°C
Umidità 86%
Pressione 1012 hPa
Visibilità: 0600 m
neve debole, nebbia

METAR: LIVR 191255Z 29014KT 0600 -SN FG VV/// 01/M01 Q1012 RMK MON INVIS VIS MIN 0600

Ora: 15:39 (13:39 UTC)


TAF: mancante

Osservazioni e previsioni meteorologiche di più di 4000 aeroporti (messaggi METAR e TAF).

Le stazioni disponibili sono rappresentate dai dischi gialli e rossi sulla carta.

Puntare il mouse per vedere il nome della stazione.

Clicca sopra per visualizzare le osservazioni e previsioni meteorologiche.

Per cambiare la mappa : fare clic sui pulsanti verdi con una croce nera per ingrandire, il pulsante verde con un trattino per diminuire, o sulla freccia verde per le mappe adiacenti.


METAR-TAF: